sensor_id;sensor_type;location;lat;lon;timestamp;P1;durP1;ratioP1;P2;durP2;ratioP2
2035;SDS011;23642;42.658;23.350;2023-05-20T00:01:10;81.40;;;75.37;;
2035;SDS011;23642;42.658;23.350;2023-05-20T00:03:45;81.23;;;74.63;;
2035;SDS011;23642;42.658;23.350;2023-05-20T00:06:22;81.13;;;75.17;;
2035;SDS011;23642;42.658;23.350;2023-05-20T00:08:51;80.00;;;74.33;;
2035;SDS011;23642;42.658;23.350;2023-05-20T00:11:21;80.97;;;75.07;;
2035;SDS011;23642;42.658;23.350;2023-05-20T00:14:05;79.43;;;73.97;;
2035;SDS011;23642;42.658;23.350;2023-05-20T00:16:35;80.77;;;74.57;;
2035;SDS011;23642;42.658;23.350;2023-05-20T00:19:05;81.00;;;74.83;;
2035;SDS011;23642;42.658;23.350;2023-05-20T00:21:34;79.80;;;73.80;;
2035;SDS011;23642;42.658;23.350;2023-05-20T00:24:14;79.30;;;73.50;;
2035;SDS011;23642;42.658;23.350;2023-05-20T00:26:51;78.83;;;72.73;;
2035;SDS011;23642;42.658;23.350;2023-05-20T00:29:27;82.07;;;75.87;;
2035;SDS011;23642;42.658;23.350;2023-05-20T00:32:03;83.67;;;76.60;;
2035;SDS011;23642;42.658;23.350;2023-05-20T00:34:41;77.10;;;71.23;;
2035;SDS011;23642;42.658;23.350;2023-05-20T00:37:28;79.67;;;73.90;;
2035;SDS011;23642;42.658;23.350;2023-05-20T00:39:55;80.00;;;74.40;;
2035;SDS011;23642;42.658;23.350;2023-05-20T00:42:27;80.00;;;74.07;;
2035;SDS011;23642;42.658;23.350;2023-05-20T00:45:00;78.20;;;72.30;;
2035;SDS011;23642;42.658;23.350;2023-05-20T00:47:44;80.37;;;74.57;;
2035;SDS011;23642;42.658;23.350;2023-05-20T00:50:16;79.13;;;72.53;;
2035;SDS011;23642;42.658;23.350;2023-05-20T00:52:45;81.60;;;75.27;;
2035;SDS011;23642;42.658;23.350;2023-05-20T00:55:28;79.37;;;73.60;;
2035;SDS011;23642;42.658;23.350;2023-05-20T00:58:18;80.27;;;74.00;;
2035;SDS011;23642;42.658;23.350;2023-05-20T01:00:45;78.47;;;72.60;;
2035;SDS011;23642;42.658;23.350;2023-05-20T01:03:22;80.90;;;74.40;;
2035;SDS011;23642;42.658;23.350;2023-05-20T01:05:58;81.37;;;74.07;;
2035;SDS011;23642;42.658;23.350;2023-05-20T01:08:26;76.47;;;70.77;;
2035;SDS011;23642;42.658;23.350;2023-05-20T01:10:57;75.13;;;69.73;;
2035;SDS011;23642;42.658;23.350;2023-05-20T01:13:32;75.60;;;70.00;;
2035;SDS011;23642;42.658;23.350;2023-05-20T01:16:04;75.80;;;70.23;;
2035;SDS011;23642;42.658;23.350;2023-05-20T01:18:38;75.00;;;69.27;;
2035;SDS011;23642;42.658;23.350;2023-05-20T01:24:07;74.93;;;69.00;;
2035;SDS011;23642;42.658;23.350;2023-05-20T01:26:40;73.20;;;67.60;;
2035;SDS011;23642;42.658;23.350;2023-05-20T01:29:07;74.53;;;68.87;;
2035;SDS011;23642;42.658;23.350;2023-05-20T01:31:38;71.90;;;66.73;;
2035;SDS011;23642;42.658;23.350;2023-05-20T01:34:16;72.23;;;66.07;;
2035;SDS011;23642;42.658;23.350;2023-05-20T01:37:05;71.93;;;66.50;;
2035;SDS011;23642;42.658;23.350;2023-05-20T01:39:54;73.90;;;67.73;;
2035;SDS011;23642;42.658;23.350;2023-05-20T01:42:29;72.40;;;67.00;;
2035;SDS011;23642;42.658;23.350;2023-05-20T01:45:19;73.57;;;67.97;;
2035;SDS011;23642;42.658;23.350;2023-05-20T01:48:09;72.30;;;67.00;;
2035;SDS011;23642;42.658;23.350;2023-05-20T01:50:53;73.70;;;68.10;;
2035;SDS011;23642;42.658;23.350;2023-05-20T01:53:35;74.00;;;68.37;;
2035;SDS011;23642;42.658;23.350;2023-05-20T01:56:12;73.20;;;67.93;;
2035;SDS011;23642;42.658;23.350;2023-05-20T01:58:51;72.60;;;67.50;;
2035;SDS011;23642;42.658;23.350;2023-05-20T02:01:24;74.30;;;68.80;;
2035;SDS011;23642;42.658;23.350;2023-05-20T02:03:53;73.03;;;67.63;;
2035;SDS011;23642;42.658;23.350;2023-05-20T02:06:26;73.97;;;67.97;;
2035;SDS011;23642;42.658;23.350;2023-05-20T02:09:00;73.13;;;67.90;;
2035;SDS011;23642;42.658;23.350;2023-05-20T02:11:49;72.60;;;66.93;;
2035;SDS011;23642;42.658;23.350;2023-05-20T02:14:40;72.60;;;67.40;;
2035;SDS011;23642;42.658;23.350;2023-05-20T02:17:14;72.73;;;67.60;;
2035;SDS011;23642;42.658;23.350;2023-05-20T02:19:47;73.23;;;68.13;;
2035;SDS011;23642;42.658;23.350;2023-05-20T02:22:33;74.13;;;68.93;;
2035;SDS011;23642;42.658;23.350;2023-05-20T02:25:13;72.07;;;66.87;;
2035;SDS011;23642;42.658;23.350;2023-05-20T02:31:07;73.10;;;68.00;;
2035;SDS011;23642;42.658;23.350;2023-05-20T02:33:47;73.87;;;68.07;;
2035;SDS011;23642;42.658;23.350;2023-05-20T02:36:21;73.40;;;67.90;;
2035;SDS011;23642;42.658;23.350;2023-05-20T02:38:49;72.53;;;67.10;;
2035;SDS011;23642;42.658;23.350;2023-05-20T02:41:25;74.13;;;68.83;;
2035;SDS011;23642;42.658;23.350;2023-05-20T02:44:02;72.60;;;67.23;;
2035;SDS011;23642;42.658;23.350;2023-05-20T02:46:42;72.97;;;67.43;;
2035;SDS011;23642;42.658;23.350;2023-05-20T02:49:13;71.87;;;66.73;;
2035;SDS011;23642;42.658;23.350;2023-05-20T02:52:01;71.97;;;66.77;;
2035;SDS011;23642;42.658;23.350;2023-05-20T02:54:44;71.10;;;65.83;;
2035;SDS011;23642;42.658;23.350;2023-05-20T02:57:16;72.43;;;67.23;;
2035;SDS011;23642;42.658;23.350;2023-05-20T02:59:49;72.53;;;67.50;;
2035;SDS011;23642;42.658;23.350;2023-05-20T03:02:20;72.47;;;67.13;;
2035;SDS011;23642;42.658;23.350;2023-05-20T03:04:56;71.13;;;65.73;;
2035;SDS011;23642;42.658;23.350;2023-05-20T03:10:36;69.93;;;64.53;;
2035;SDS011;23642;42.658;23.350;2023-05-20T03:13:16;72.00;;;66.30;;
2035;SDS011;23642;42.658;23.350;2023-05-20T03:16:00;70.73;;;65.53;;
2035;SDS011;23642;42.658;23.350;2023-05-20T03:18:36;69.37;;;64.27;;
2035;SDS011;23642;42.658;23.350;2023-05-20T03:21:08;71.30;;;65.83;;
2035;SDS011;23642;42.658;23.350;2023-05-20T03:23:40;70.53;;;65.10;;
2035;SDS011;23642;42.658;23.350;2023-05-20T03:26:12;71.80;;;66.40;;
2035;SDS011;23642;42.658;23.350;2023-05-20T03:28:41;70.50;;;65.40;;
2035;SDS011;23642;42.658;23.350;2023-05-20T03:34:13;69.90;;;64.63;;
2035;SDS011;23642;42.658;23.350;2023-05-20T03:36:46;69.67;;;64.17;;
2035;SDS011;23642;42.658;23.350;2023-05-20T03:39:26;69.17;;;64.17;;
2035;SDS011;23642;42.658;23.350;2023-05-20T03:41:54;69.13;;;64.23;;
2035;SDS011;23642;42.658;23.350;2023-05-20T03:44:45;70.70;;;65.70;;
2035;SDS011;23642;42.658;23.350;2023-05-20T03:47:18;70.07;;;64.87;;
2035;SDS011;23642;42.658;23.350;2023-05-20T03:50:06;72.07;;;67.07;;
2035;SDS011;23642;42.658;23.350;2023-05-20T03:52:35;72.47;;;66.43;;
2035;SDS011;23642;42.658;23.350;2023-05-20T03:55:05;72.20;;;66.83;;
2035;SDS011;23642;42.658;23.350;2023-05-20T03:57:38;74.10;;;68.37;;
2035;SDS011;23642;42.658;23.350;2023-05-20T04:03:04;73.13;;;67.40;;
2035;SDS011;23642;42.658;23.350;2023-05-20T04:05:37;73.50;;;67.90;;
2035;SDS011;23642;42.658;23.350;2023-05-20T04:08:08;74.50;;;68.53;;
2035;SDS011;23642;42.658;23.350;2023-05-20T04:10:54;71.67;;;66.27;;
2035;SDS011;23642;42.658;23.350;2023-05-20T04:13:34;71.60;;;66.70;;
2035;SDS011;23642;42.658;23.350;2023-05-20T04:16:04;72.47;;;67.27;;
2035;SDS011;23642;42.658;23.350;2023-05-20T04:18:57;72.00;;;66.90;;
2035;SDS011;23642;42.658;23.350;2023-05-20T04:21:29;75.30;;;69.73;;
2035;SDS011;23642;42.658;23.350;2023-05-20T04:24:29;76.83;;;71.13;;
2035;SDS011;23642;42.658;23.350;2023-05-20T04:26:56;76.53;;;71.13;;
2035;SDS011;23642;42.658;23.350;2023-05-20T04:29:26;76.20;;;70.67;;
2035;SDS011;23642;42.658;23.350;2023-05-20T04:31:54;79.10;;;73.37;;
2035;SDS011;23642;42.658;23.350;2023-05-20T04:34:48;81.13;;;74.90;;
2035;SDS011;23642;42.658;23.350;2023-05-20T04:37:23;85.23;;;78.30;;
2035;SDS011;23642;42.658;23.350;2023-05-20T04:39:51;82.20;;;76.10;;
2035;SDS011;23642;42.658;23.350;2023-05-20T04:42:24;83.17;;;76.63;;
2035;SDS011;23642;42.658;23.350;2023-05-20T04:45:06;85.10;;;78.20;;
2035;SDS011;23642;42.658;23.350;2023-05-20T04:47:52;84.90;;;78.63;;
2035;SDS011;23642;42.658;23.350;2023-05-20T04:50:21;82.03;;;76.00;;
2035;SDS011;23642;42.658;23.350;2023-05-20T04:52:53;86.27;;;79.10;;
2035;SDS011;23642;42.658;23.350;2023-05-20T04:55:40;87.57;;;81.43;;
2035;SDS011;23642;42.658;23.350;2023-05-20T04:58:28;89.63;;;82.90;;
2035;SDS011;23642;42.658;23.350;2023-05-20T05:01:07;89.80;;;83.20;;
2035;SDS011;23642;42.658;23.350;2023-05-20T05:03:45;91.33;;;84.83;;
2035;SDS011;23642;42.658;23.350;2023-05-20T05:06:27;92.90;;;85.77;;
2035;SDS011;23642;42.658;23.350;2023-05-20T05:09:00;93.10;;;86.37;;
2035;SDS011;23642;42.658;23.350;2023-05-20T05:11:45;91.23;;;84.87;;
2035;SDS011;23642;42.658;23.350;2023-05-20T05:14:13;93.27;;;86.60;;
2035;SDS011;23642;42.658;23.350;2023-05-20T05:16:49;92.20;;;85.00;;
2035;SDS011;23642;42.658;23.350;2023-05-20T05:19:43;91.57;;;84.97;;
2035;SDS011;23642;42.658;23.350;2023-05-20T05:22:14;93.57;;;86.30;;
2035;SDS011;23642;42.658;23.350;2023-05-20T05:24:43;95.53;;;88.13;;
2035;SDS011;23642;42.658;23.350;2023-05-20T05:27:18;93.70;;;86.97;;
2035;SDS011;23642;42.658;23.350;2023-05-20T05:29:54;96.50;;;89.10;;
2035;SDS011;23642;42.658;23.350;2023-05-20T05:32:33;100.80;;;93.17;;
2035;SDS011;23642;42.658;23.350;2023-05-20T05:35:10;100.70;;;93.30;;
2035;SDS011;23642;42.658;23.350;2023-05-20T05:37:47;100.43;;;93.27;;
2035;SDS011;23642;42.658;23.350;2023-05-20T05:40:16;101.57;;;94.27;;
2035;SDS011;23642;42.658;23.350;2023-05-20T05:43:01;102.10;;;94.50;;
2035;SDS011;23642;42.658;23.350;2023-05-20T05:45:48;102.07;;;94.90;;
2035;SDS011;23642;42.658;23.350;2023-05-20T05:48:35;98.67;;;91.90;;
2035;SDS011;23642;42.658;23.350;2023-05-20T05:51:44;102.27;;;94.80;;
2035;SDS011;23642;42.658;23.350;2023-05-20T05:57:49;102.90;;;95.30;;
2035;SDS011;23642;42.658;23.350;2023-05-20T06:00:32;103.33;;;96.00;;
2035;SDS011;23642;42.658;23.350;2023-05-20T06:03:07;102.73;;;95.33;;
2035;SDS011;23642;42.658;23.350;2023-05-20T06:06:12;101.47;;;94.47;;
2035;SDS011;23642;42.658;23.350;2023-05-20T06:08:58;103.90;;;96.63;;
2035;SDS011;23642;42.658;23.350;2023-05-20T06:11:32;101.97;;;94.67;;
2035;SDS011;23642;42.658;23.350;2023-05-20T06:14:51;100.47;;;93.67;;
2035;SDS011;23642;42.658;23.350;2023-05-20T06:17:48;98.47;;;90.93;;
2035;SDS011;23642;42.658;23.350;2023-05-20T06:20:59;98.90;;;92.20;;
2035;SDS011;23642;42.658;23.350;2023-05-20T06:24:20;98.70;;;92.00;;
2035;SDS011;23642;42.658;23.350;2023-05-20T06:27:17;99.47;;;92.63;;
2035;SDS011;23642;42.658;23.350;2023-05-20T06:33:24;102.10;;;94.40;;
2035;SDS011;23642;42.658;23.350;2023-05-20T06:36:12;99.60;;;93.10;;
2035;SDS011;23642;42.658;23.350;2023-05-20T06:39:10;101.20;;;94.17;;
2035;SDS011;23642;42.658;23.350;2023-05-20T06:41:48;99.93;;;93.30;;
2035;SDS011;23642;42.658;23.350;2023-05-20T06:44:18;100.47;;;93.50;;
2035;SDS011;23642;42.658;23.350;2023-05-20T06:46:58;99.07;;;92.50;;
2035;SDS011;23642;42.658;23.350;2023-05-20T06:49:56;98.70;;;92.30;;
2035;SDS011;23642;42.658;23.350;2023-05-20T06:52:56;98.43;;;92.13;;
2035;SDS011;23642;42.658;23.350;2023-05-20T06:55:40;98.63;;;92.03;;
2035;SDS011;23642;42.658;23.350;2023-05-20T07:01:53;100.07;;;93.10;;
2035;SDS011;23642;42.658;23.350;2023-05-20T07:05:14;96.37;;;90.10;;
2035;SDS011;23642;42.658;23.350;2023-05-20T07:08:02;96.40;;;90.07;;
2035;SDS011;23642;42.658;23.350;2023-05-20T07:10:54;96.90;;;90.63;;
2035;SDS011;23642;42.658;23.350;2023-05-20T07:19:20;96.70;;;90.40;;
2035;SDS011;23642;42.658;23.350;2023-05-20T07:22:23;97.47;;;91.23;;
2035;SDS011;23642;42.658;23.350;2023-05-20T07:25:19;96.60;;;90.27;;
2035;SDS011;23642;42.658;23.350;2023-05-20T07:28:18;98.80;;;91.40;;
2035;SDS011;23642;42.658;23.350;2023-05-20T07:31:24;95.97;;;89.87;;
2035;SDS011;23642;42.658;23.350;2023-05-20T07:37:55;96.00;;;90.00;;
2035;SDS011;23642;42.658;23.350;2023-05-20T07:40:22;95.73;;;89.40;;
2035;SDS011;23642;42.658;23.350;2023-05-20T07:43:08;95.80;;;89.30;;
2035;SDS011;23642;42.658;23.350;2023-05-20T07:46:38;97.80;;;91.03;;
2035;SDS011;23642;42.658;23.350;2023-05-20T07:49:11;98.13;;;91.73;;
2035;SDS011;23642;42.658;23.350;2023-05-20T07:55:01;97.30;;;91.00;;
2035;SDS011;23642;42.658;23.350;2023-05-20T07:57:49;94.73;;;88.73;;
2035;SDS011;23642;42.658;23.350;2023-05-20T08:00:39;98.10;;;92.00;;
2035;SDS011;23642;42.658;23.350;2023-05-20T08:03:06;95.97;;;89.87;;
2035;SDS011;23642;42.658;23.350;2023-05-20T08:05:35;97.90;;;91.47;;
2035;SDS011;23642;42.658;23.350;2023-05-20T08:08:22;96.47;;;90.00;;
2035;SDS011;23642;42.658;23.350;2023-05-20T08:14:02;97.87;;;91.43;;
2035;SDS011;23642;42.658;23.350;2023-05-20T08:16:31;96.50;;;90.27;;
2035;SDS011;23642;42.658;23.350;2023-05-20T08:19:06;95.47;;;89.43;;
2035;SDS011;23642;42.658;23.350;2023-05-20T08:21:46;95.47;;;89.47;;
2035;SDS011;23642;42.658;23.350;2023-05-20T08:24:35;98.87;;;92.17;;
2035;SDS011;23642;42.658;23.350;2023-05-20T08:27:34;98.23;;;91.77;;
2035;SDS011;23642;42.658;23.350;2023-05-20T08:30:18;96.97;;;90.87;;
2035;SDS011;23642;42.658;23.350;2023-05-20T08:33:07;97.97;;;91.87;;
2035;SDS011;23642;42.658;23.350;2023-05-20T08:35:58;96.30;;;90.00;;
2035;SDS011;23642;42.658;23.350;2023-05-20T08:38:50;95.63;;;89.40;;
2035;SDS011;23642;42.658;23.350;2023-05-20T08:41:34;98.27;;;91.83;;
2035;SDS011;23642;42.658;23.350;2023-05-20T08:47:41;97.60;;;91.40;;
2035;SDS011;23642;42.658;23.350;2023-05-20T08:50:20;98.03;;;91.63;;
2035;SDS011;23642;42.658;23.350;2023-05-20T08:53:26;100.50;;;94.07;;
2035;SDS011;23642;42.658;23.350;2023-05-20T08:55:59;98.13;;;92.13;;
2035;SDS011;23642;42.658;23.350;2023-05-20T08:58:37;100.63;;;94.07;;
2035;SDS011;23642;42.658;23.350;2023-05-20T09:01:11;95.00;;;89.07;;
2035;SDS011;23642;42.658;23.350;2023-05-20T09:03:55;96.17;;;90.17;;
2035;SDS011;23642;42.658;23.350;2023-05-20T09:06:45;98.03;;;91.83;;
2035;SDS011;23642;42.658;23.350;2023-05-20T09:09:37;99.20;;;92.70;;
2035;SDS011;23642;42.658;23.350;2023-05-20T09:12:22;95.33;;;89.33;;
2035;SDS011;23642;42.658;23.350;2023-05-20T09:18:02;95.07;;;89.07;;
2035;SDS011;23642;42.658;23.350;2023-05-20T09:20:35;97.10;;;90.57;;
2035;SDS011;23642;42.658;23.350;2023-05-20T09:23:11;95.20;;;89.10;;
2035;SDS011;23642;42.658;23.350;2023-05-20T09:25:42;96.67;;;90.53;;
2035;SDS011;23642;42.658;23.350;2023-05-20T09:28:22;97.17;;;90.67;;
2035;SDS011;23642;42.658;23.350;2023-05-20T09:34:12;98.00;;;91.63;;
2035;SDS011;23642;42.658;23.350;2023-05-20T09:36:44;96.53;;;90.33;;
2035;SDS011;23642;42.658;23.350;2023-05-20T09:42:46;96.23;;;90.10;;
2035;SDS011;23642;42.658;23.350;2023-05-20T09:45:28;97.70;;;91.43;;
2035;SDS011;23642;42.658;23.350;2023-05-20T09:51:27;96.47;;;90.47;;
2035;SDS011;23642;42.658;23.350;2023-05-20T09:56:50;97.23;;;90.93;;
2035;SDS011;23642;42.658;23.350;2023-05-20T09:59:28;94.30;;;88.30;;
2035;SDS011;23642;42.658;23.350;2023-05-20T10:02:04;95.87;;;89.87;;
2035;SDS011;23642;42.658;23.350;2023-05-20T10:04:52;98.10;;;91.93;;
2035;SDS011;23642;42.658;23.350;2023-05-20T10:07:48;96.07;;;89.67;;
2035;SDS011;23642;42.658;23.350;2023-05-20T10:14:20;98.03;;;91.73;;
2035;SDS011;23642;42.658;23.350;2023-05-20T10:17:13;95.60;;;89.70;;
2035;SDS011;23642;42.658;23.350;2023-05-20T10:19:56;95.17;;;89.13;;
2035;SDS011;23642;42.658;23.350;2023-05-20T10:22:43;95.43;;;89.47;;
2035;SDS011;23642;42.658;23.350;2023-05-20T10:25:26;93.90;;;87.70;;
2035;SDS011;23642;42.658;23.350;2023-05-20T10:28:14;95.63;;;89.63;;
2035;SDS011;23642;42.658;23.350;2023-05-20T10:31:16;95.10;;;88.70;;
2035;SDS011;23642;42.658;23.350;2023-05-20T10:35:51;93.20;;;87.40;;
2035;SDS011;23642;42.658;23.350;2023-05-20T10:37:04;95.53;;;89.67;;
2035;SDS011;23642;42.658;23.350;2023-05-20T10:40:10;96.57;;;90.43;;
2035;SDS011;23642;42.658;23.350;2023-05-20T10:42:55;94.80;;;88.90;;
2035;SDS011;23642;42.658;23.350;2023-05-20T10:45:35;95.27;;;89.27;;
2035;SDS011;23642;42.658;23.350;2023-05-20T10:48:30;94.27;;;88.37;;
2035;SDS011;23642;42.658;23.350;2023-05-20T10:51:09;99.73;;;93.13;;
2035;SDS011;23642;42.658;23.350;2023-05-20T10:53:44;97.20;;;91.00;;
2035;SDS011;23642;42.658;23.350;2023-05-20T10:56:17;93.67;;;88.00;;
2035;SDS011;23642;42.658;23.350;2023-05-20T10:58:49;94.60;;;88.70;;
2035;SDS011;23642;42.658;23.350;2023-05-20T11:04:20;94.83;;;89.03;;
2035;SDS011;23642;42.658;23.350;2023-05-20T11:07:07;94.83;;;89.03;;
2035;SDS011;23642;42.658;23.350;2023-05-20T11:09:35;96.90;;;90.80;;
2035;SDS011;23642;42.658;23.350;2023-05-20T11:12:02;96.40;;;90.60;;
2035;SDS011;23642;42.658;23.350;2023-05-20T11:14:35;96.07;;;89.87;;
2035;SDS011;23642;42.658;23.350;2023-05-20T11:17:17;96.37;;;90.23;;
2035;SDS011;23642;42.658;23.350;2023-05-20T11:20:08;96.03;;;90.03;;
2035;SDS011;23642;42.658;23.350;2023-05-20T11:22:39;91.83;;;86.13;;
2035;SDS011;23642;42.658;23.350;2023-05-20T11:25:31;96.20;;;90.20;;
2035;SDS011;23642;42.658;23.350;2023-05-20T11:28:28;95.20;;;89.23;;
2035;SDS011;23642;42.658;23.350;2023-05-20T11:31:02;94.23;;;88.53;;
2035;SDS011;23642;42.658;23.350;2023-05-20T11:36:54;95.53;;;89.50;;
2035;SDS011;23642;42.658;23.350;2023-05-20T11:40:07;94.67;;;88.87;;
2035;SDS011;23642;42.658;23.350;2023-05-20T11:42:53;95.30;;;89.40;;
2035;SDS011;23642;42.658;23.350;2023-05-20T11:45:37;91.97;;;86.37;;
2035;SDS011;23642;42.658;23.350;2023-05-20T11:51:27;96.40;;;90.50;;
2035;SDS011;23642;42.658;23.350;2023-05-20T11:54:12;96.20;;;90.20;;
2035;SDS011;23642;42.658;23.350;2023-05-20T11:57:02;93.87;;;87.97;;
2035;SDS011;23642;42.658;23.350;2023-05-20T11:59:34;96.43;;;90.40;;
2035;SDS011;23642;42.658;23.350;2023-05-20T12:02:02;97.20;;;91.40;;
2035;SDS011;23642;42.658;23.350;2023-05-20T12:04:33;93.10;;;87.30;;
2035;SDS011;23642;42.658;23.350;2023-05-20T12:10:29;95.67;;;89.57;;
2035;SDS011;23642;42.658;23.350;2023-05-20T12:13:38;96.43;;;90.50;;
2035;SDS011;23642;42.658;23.350;2023-05-20T12:16:27;93.07;;;87.17;;
2035;SDS011;23642;42.658;23.350;2023-05-20T12:19:39;93.63;;;87.80;;
2035;SDS011;23642;42.658;23.350;2023-05-20T12:25:01;94.43;;;88.33;;
2035;SDS011;23642;42.658;23.350;2023-05-20T12:27:31;95.90;;;89.80;;
2035;SDS011;23642;42.658;23.350;2023-05-20T12:30:22;93.87;;;87.73;;
2035;SDS011;23642;42.658;23.350;2023-05-20T12:33:09;91.90;;;86.00;;
2035;SDS011;23642;42.658;23.350;2023-05-20T12:35:48;91.80;;;86.10;;
2035;SDS011;23642;42.658;23.350;2023-05-20T12:38:28;91.60;;;86.10;;
2035;SDS011;23642;42.658;23.350;2023-05-20T12:41:15;90.97;;;85.00;;
2035;SDS011;23642;42.658;23.350;2023-05-20T12:44:01;91.47;;;85.40;;
2035;SDS011;23642;42.658;23.350;2023-05-20T12:46:28;94.30;;;87.87;;
2035;SDS011;23642;42.658;23.350;2023-05-20T12:49:04;91.77;;;86.27;;
2035;SDS011;23642;42.658;23.350;2023-05-20T12:51:42;92.50;;;86.70;;
2035;SDS011;23642;42.658;23.350;2023-05-20T12:54:09;87.60;;;82.30;;
2035;SDS011;23642;42.658;23.350;2023-05-20T12:56:53;92.57;;;86.87;;
2035;SDS011;23642;42.658;23.350;2023-05-20T13:04:16;92.40;;;85.80;;
2035;SDS011;23642;42.658;23.350;2023-05-20T13:06:19;92.67;;;86.80;;
2035;SDS011;23642;42.658;23.350;2023-05-20T13:09:09;92.73;;;87.10;;
2035;SDS011;23642;42.658;23.350;2023-05-20T13:11:39;93.50;;;87.60;;
2035;SDS011;23642;42.658;23.350;2023-05-20T13:14:24;92.37;;;86.77;;
2035;SDS011;23642;42.658;23.350;2023-05-20T13:20:06;91.60;;;85.73;;
2035;SDS011;23642;42.658;23.350;2023-05-20T13:22:48;91.60;;;86.00;;
2035;SDS011;23642;42.658;23.350;2023-05-20T13:25:34;92.80;;;86.70;;
2035;SDS011;23642;42.658;23.350;2023-05-20T13:28:03;89.67;;;84.07;;
2035;SDS011;23642;42.658;23.350;2023-05-20T13:31:25;92.60;;;86.93;;
2035;SDS011;23642;42.658;23.350;2023-05-20T13:34:38;91.27;;;85.70;;
2035;SDS011;23642;42.658;23.350;2023-05-20T13:37:47;90.67;;;85.27;;
2035;SDS011;23642;42.658;23.350;2023-05-20T13:42:07;92.10;;;86.47;;
2035;SDS011;23642;42.658;23.350;2023-05-20T13:44:14;91.60;;;85.80;;
2035;SDS011;23642;42.658;23.350;2023-05-20T13:47:19;91.20;;;85.80;;
2035;SDS011;23642;42.658;23.350;2023-05-20T13:50:32;92.30;;;86.70;;
2035;SDS011;23642;42.658;23.350;2023-05-20T13:53:42;92.17;;;86.67;;
2035;SDS011;23642;42.658;23.350;2023-05-20T13:57:49;93.67;;;88.03;;
2035;SDS011;23642;42.658;23.350;2023-05-20T14:03:21;94.20;;;88.27;;
2035;SDS011;23642;42.658;23.350;2023-05-20T14:09:29;92.90;;;87.10;;
2035;SDS011;23642;42.658;23.350;2023-05-20T14:12:13;92.43;;;86.93;;
2035;SDS011;23642;42.658;23.350;2023-05-20T14:15:13;93.03;;;87.43;;
2035;SDS011;23642;42.658;23.350;2023-05-20T14:18:26;94.43;;;88.63;;
2035;SDS011;23642;42.658;23.350;2023-05-20T14:21:40;93.93;;;87.80;;
2035;SDS011;23642;42.658;23.350;2023-05-20T14:31:39;92.50;;;86.73;;
2035;SDS011;23642;42.658;23.350;2023-05-20T14:34:45;92.27;;;86.53;;
2035;SDS011;23642;42.658;23.350;2023-05-20T14:37:29;93.03;;;87.33;;
2035;SDS011;23642;42.658;23.350;2023-05-20T14:40:37;94.57;;;88.87;;
2035;SDS011;23642;42.658;23.350;2023-05-20T14:43:33;95.10;;;89.40;;
2035;SDS011;23642;42.658;23.350;2023-05-20T14:46:34;92.93;;;87.23;;
2035;SDS011;23642;42.658;23.350;2023-05-20T14:49:35;97.43;;;91.10;;
2035;SDS011;23642;42.658;23.350;2023-05-20T14:55:31;95.90;;;90.00;;
2035;SDS011;23642;42.658;23.350;2023-05-20T14:59:18;95.60;;;89.80;;
2035;SDS011;23642;42.658;23.350;2023-05-20T15:04:24;94.23;;;88.53;;
2035;SDS011;23642;42.658;23.350;2023-05-20T15:07:15;92.47;;;86.77;;
2035;SDS011;23642;42.658;23.350;2023-05-20T15:13:36;95.50;;;89.10;;
2035;SDS011;23642;42.658;23.350;2023-05-20T15:16:37;97.00;;;91.13;;
2035;SDS011;23642;42.658;23.350;2023-05-20T15:19:38;93.93;;;87.83;;
2035;SDS011;23642;42.658;23.350;2023-05-20T15:23:08;95.87;;;89.83;;
2035;SDS011;23642;42.658;23.350;2023-05-20T15:29:53;95.20;;;89.30;;
2035;SDS011;23642;42.658;23.350;2023-05-20T15:32:55;96.70;;;90.83;;
2035;SDS011;23642;42.658;23.350;2023-05-20T15:38:26;94.50;;;88.63;;
2035;SDS011;23642;42.658;23.350;2023-05-20T15:41:02;96.60;;;90.60;;
2035;SDS011;23642;42.658;23.350;2023-05-20T15:43:45;96.63;;;90.73;;
2035;SDS011;23642;42.658;23.350;2023-05-20T15:46:55;95.87;;;89.53;;
2035;SDS011;23642;42.658;23.350;2023-05-20T15:49:46;93.57;;;87.77;;
2035;SDS011;23642;42.658;23.350;2023-05-20T15:52:36;95.30;;;89.50;;
2035;SDS011;23642;42.658;23.350;2023-05-20T15:55:10;95.80;;;90.00;;
2035;SDS011;23642;42.658;23.350;2023-05-20T15:57:37;94.67;;;88.73;;
2035;SDS011;23642;42.658;23.350;2023-05-20T16:00:23;94.57;;;88.60;;
2035;SDS011;23642;42.658;23.350;2023-05-20T16:03:10;92.77;;;87.03;;
2035;SDS011;23642;42.658;23.350;2023-05-20T16:05:58;92.80;;;87.00;;
2035;SDS011;23642;42.658;23.350;2023-05-20T16:08:56;93.97;;;88.07;;
2035;SDS011;23642;42.658;23.350;2023-05-20T16:11:43;95.30;;;89.40;;
2035;SDS011;23642;42.658;23.350;2023-05-20T16:14:14;96.30;;;90.40;;
2035;SDS011;23642;42.658;23.350;2023-05-20T16:19:49;97.00;;;90.83;;
2035;SDS011;23642;42.658;23.350;2023-05-20T16:22:41;94.53;;;88.70;;
2035;SDS011;23642;42.658;23.350;2023-05-20T16:25:27;94.17;;;88.27;;
2035;SDS011;23642;42.658;23.350;2023-05-20T16:28:01;93.50;;;87.80;;
2035;SDS011;23642;42.658;23.350;2023-05-20T16:31:05;94.53;;;88.83;;
2035;SDS011;23642;42.658;23.350;2023-05-20T16:34:00;94.70;;;88.80;;
2035;SDS011;23642;42.658;23.350;2023-05-20T16:37:07;95.33;;;89.20;;
2035;SDS011;23642;42.658;23.350;2023-05-20T16:39:36;93.03;;;87.27;;
2035;SDS011;23642;42.658;23.350;2023-05-20T16:42:24;95.17;;;89.47;;
2035;SDS011;23642;42.658;23.350;2023-05-20T16:45:26;93.80;;;88.07;;
2035;SDS011;23642;42.658;23.350;2023-05-20T16:47:55;92.33;;;86.63;;
2035;SDS011;23642;42.658;23.350;2023-05-20T16:50:22;93.77;;;87.87;;
2035;SDS011;23642;42.658;23.350;2023-05-20T16:52:56;94.23;;;88.33;;
2035;SDS011;23642;42.658;23.350;2023-05-20T16:55:39;94.87;;;88.97;;
2035;SDS011;23642;42.658;23.350;2023-05-20T17:01:00;93.27;;;87.43;;
2035;SDS011;23642;42.658;23.350;2023-05-20T17:03:33;91.67;;;85.87;;
2035;SDS011;23642;42.658;23.350;2023-05-20T17:06:14;93.87;;;87.70;;
2035;SDS011;23642;42.658;23.350;2023-05-20T17:09:05;91.93;;;86.03;;
2035;SDS011;23642;42.658;23.350;2023-05-20T17:12:54;92.37;;;86.40;;
2035;SDS011;23642;42.658;23.350;2023-05-20T17:17:59;92.73;;;86.23;;
2035;SDS011;23642;42.658;23.350;2023-05-20T17:21:05;87.73;;;82.03;;
2035;SDS011;23642;42.658;23.350;2023-05-20T17:23:51;93.27;;;87.27;;
2035;SDS011;23642;42.658;23.350;2023-05-20T17:26:24;91.47;;;85.40;;
2035;SDS011;23642;42.658;23.350;2023-05-20T17:28:55;92.60;;;86.40;;
2035;SDS011;23642;42.658;23.350;2023-05-20T17:31:55;90.27;;;84.33;;
2035;SDS011;23642;42.658;23.350;2023-05-20T17:37:20;90.53;;;84.83;;
2035;SDS011;23642;42.658;23.350;2023-05-20T17:38:20;91.20;;;85.30;;
2035;SDS011;23642;42.658;23.350;2023-05-20T17:41:05;91.00;;;84.67;;
2035;SDS011;23642;42.658;23.350;2023-05-20T17:43:48;92.00;;;86.20;;
2035;SDS011;23642;42.658;23.350;2023-05-20T17:46:37;91.77;;;85.57;;
2035;SDS011;23642;42.658;23.350;2023-05-20T17:49:22;93.27;;;87.17;;
2035;SDS011;23642;42.658;23.350;2023-05-20T17:52:02;93.63;;;86.83;;
2035;SDS011;23642;42.658;23.350;2023-05-20T17:54:36;90.77;;;84.70;;
2035;SDS011;23642;42.658;23.350;2023-05-20T17:57:21;89.93;;;83.93;;
2035;SDS011;23642;42.658;23.350;2023-05-20T17:59:58;92.10;;;86.20;;
2035;SDS011;23642;42.658;23.350;2023-05-20T18:02:33;90.83;;;84.83;;